sensor_id;sensor_type;location;lat;lon;timestamp;pressure;altitude;pressure_sealevel;temperature;humidity
8717;BME280;4395;48.554;8.820;2023-10-13T00:00:04;96030.00;;;17.05;45.40
8717;BME280;4395;48.554;8.820;2023-10-13T00:02:27;96039.06;;;16.99;45.44
8717;BME280;4395;48.554;8.820;2023-10-13T00:04:30;96030.69;;;16.97;45.55
8717;BME280;4395;48.554;8.820;2023-10-13T00:06:34;96025.72;;;16.96;45.34
8717;BME280;4395;48.554;8.820;2023-10-13T00:08:39;96025.09;;;16.85;45.70
8717;BME280;4395;48.554;8.820;2023-10-13T00:10:42;96028.81;;;16.84;45.81
8717;BME280;4395;48.554;8.820;2023-10-13T00:12:44;96023.16;;;16.77;46.39
8717;BME280;4395;48.554;8.820;2023-10-13T00:14:51;96012.72;;;16.72;46.21
8717;BME280;4395;48.554;8.820;2023-10-13T00:16:56;96016.50;;;16.66;46.27
8717;BME280;4395;48.554;8.820;2023-10-13T00:19:10;96015.47;;;16.62;46.76
8717;BME280;4395;48.554;8.820;2023-10-13T00:21:15;96021.09;;;16.55;46.89
8717;BME280;4395;48.554;8.820;2023-10-13T00:23:25;96011.94;;;16.52;46.41
8717;BME280;4395;48.554;8.820;2023-10-13T00:25:29;96015.06;;;16.54;46.92
8717;BME280;4395;48.554;8.820;2023-10-13T00:27:44;96007.09;;;16.60;47.11
8717;BME280;4395;48.554;8.820;2023-10-13T00:29:53;96004.75;;;16.58;46.91
8717;BME280;4395;48.554;8.820;2023-10-13T00:32:18;96008.13;;;16.64;46.90
8717;BME280;4395;48.554;8.820;2023-10-13T00:34:28;96005.19;;;16.65;47.11
8717;BME280;4395;48.554;8.820;2023-10-13T00:36:34;96003.16;;;16.62;47.33
8717;BME280;4395;48.554;8.820;2023-10-13T00:38:36;96008.66;;;16.61;46.81
8717;BME280;4395;48.554;8.820;2023-10-13T00:40:39;95997.94;;;16.57;47.47
8717;BME280;4395;48.554;8.820;2023-10-13T00:42:45;95997.16;;;16.56;47.59
8717;BME280;4395;48.554;8.820;2023-10-13T00:44:52;95991.38;;;16.54;47.52
8717;BME280;4395;48.554;8.820;2023-10-13T00:46:56;95991.88;;;16.56;47.44
8717;BME280;4395;48.554;8.820;2023-10-13T00:49:01;95987.50;;;16.52;47.40
8717;BME280;4395;48.554;8.820;2023-10-13T00:51:06;95992.00;;;16.51;47.47
8717;BME280;4395;48.554;8.820;2023-10-13T00:53:09;95995.13;;;16.53;47.64
8717;BME280;4395;48.554;8.820;2023-10-13T00:55:12;95989.84;;;16.53;47.55
8717;BME280;4395;48.554;8.820;2023-10-13T00:57:16;95991.72;;;16.53;47.95
8717;BME280;4395;48.554;8.820;2023-10-13T00:59:28;95984.09;;;16.51;47.75
8717;BME280;4395;48.554;8.820;2023-10-13T01:01:35;95981.97;;;16.53;47.36
8717;BME280;4395;48.554;8.820;2023-10-13T01:03:38;95984.59;;;16.53;47.54
8717;BME280;4395;48.554;8.820;2023-10-13T01:05:42;95990.91;;;16.52;48.00
8717;BME280;4395;48.554;8.820;2023-10-13T01:07:44;95993.06;;;16.50;48.16
8717;BME280;4395;48.554;8.820;2023-10-13T01:09:47;95994.13;;;16.49;47.79
8717;BME280;4395;48.554;8.820;2023-10-13T01:11:50;95998.94;;;16.42;48.20
8717;BME280;4395;48.554;8.820;2023-10-13T01:13:55;95990.31;;;16.42;48.01
8717;BME280;4395;48.554;8.820;2023-10-13T01:15:56;95994.56;;;16.38;47.94
8717;BME280;4395;48.554;8.820;2023-10-13T01:18:06;95995.34;;;16.38;48.27
8717;BME280;4395;48.554;8.820;2023-10-13T01:20:12;95991.16;;;16.37;48.83
8717;BME280;4395;48.554;8.820;2023-10-13T01:22:23;95989.09;;;16.34;48.12
8717;BME280;4395;48.554;8.820;2023-10-13T01:24:26;95987.53;;;16.33;48.23
8717;BME280;4395;48.554;8.820;2023-10-13T01:26:33;95987.53;;;16.33;48.69
8717;BME280;4395;48.554;8.820;2023-10-13T01:28:40;95981.31;;;16.29;48.15
8717;BME280;4395;48.554;8.820;2023-10-13T01:30:48;95975.56;;;16.27;48.69
8717;BME280;4395;48.554;8.820;2023-10-13T01:32:53;95977.19;;;16.23;48.53
8717;BME280;4395;48.554;8.820;2023-10-13T01:34:56;95974.06;;;16.21;48.93
8717;BME280;4395;48.554;8.820;2023-10-13T01:36:59;95971.53;;;16.16;48.94
8717;BME280;4395;48.554;8.820;2023-10-13T01:39:08;95972.09;;;16.13;49.24
8717;BME280;4395;48.554;8.820;2023-10-13T01:41:14;95971.88;;;16.09;48.65
8717;BME280;4395;48.554;8.820;2023-10-13T01:43:17;95978.47;;;16.07;48.83
8717;BME280;4395;48.554;8.820;2023-10-13T01:45:19;95972.75;;;16.05;49.33
8717;BME280;4395;48.554;8.820;2023-10-13T01:47:22;95971.75;;;16.01;49.07
8717;BME280;4395;48.554;8.820;2023-10-13T01:49:25;95972.81;;;16.00;49.07
8717;BME280;4395;48.554;8.820;2023-10-13T01:51:28;95970.69;;;16.02;48.81
8717;BME280;4395;48.554;8.820;2023-10-13T01:53:30;95973.53;;;16.05;49.03
8717;BME280;4395;48.554;8.820;2023-10-13T01:55:33;95965.44;;;16.02;49.33
8717;BME280;4395;48.554;8.820;2023-10-13T01:57:46;95957.34;;;15.98;49.37
8717;BME280;4395;48.554;8.820;2023-10-13T01:59:49;95961.75;;;16.03;48.96
8717;BME280;4395;48.554;8.820;2023-10-13T02:01:52;95959.19;;;15.98;49.05
8717;BME280;4395;48.554;8.820;2023-10-13T02:03:57;95967.06;;;15.98;49.02
8717;BME280;4395;48.554;8.820;2023-10-13T02:06:04;95957.56;;;16.02;48.87
8717;BME280;4395;48.554;8.820;2023-10-13T02:08:07;95966.00;;;15.99;49.31
8717;BME280;4395;48.554;8.820;2023-10-13T02:10:12;95953.94;;;15.98;49.12
8717;BME280;4395;48.554;8.820;2023-10-13T02:12:15;95952.97;;;15.94;49.61
8717;BME280;4395;48.554;8.820;2023-10-13T02:14:20;95956.06;;;15.96;49.28
8717;BME280;4395;48.554;8.820;2023-10-13T02:16:27;95951.97;;;15.90;49.28
8717;BME280;4395;48.554;8.820;2023-10-13T02:18:33;95952.59;;;16.00;49.44
8717;BME280;4395;48.554;8.820;2023-10-13T02:20:42;95948.28;;;15.91;49.36
8717;BME280;4395;48.554;8.820;2023-10-13T02:22:46;95948.00;;;15.92;49.43
8717;BME280;4395;48.554;8.820;2023-10-13T02:24:51;95951.41;;;15.93;49.48
8717;BME280;4395;48.554;8.820;2023-10-13T02:26:54;95941.94;;;15.92;49.31
8717;BME280;4395;48.554;8.820;2023-10-13T02:29:00;95936.97;;;15.90;49.51
8717;BME280;4395;48.554;8.820;2023-10-13T02:31:06;95936.19;;;15.90;49.42
8717;BME280;4395;48.554;8.820;2023-10-13T02:33:11;95925.13;;;15.93;49.53
8717;BME280;4395;48.554;8.820;2023-10-13T02:35:13;95930.94;;;15.90;49.18
8717;BME280;4395;48.554;8.820;2023-10-13T02:37:19;95931.72;;;15.90;49.15
8717;BME280;4395;48.554;8.820;2023-10-13T02:39:21;95919.72;;;15.84;49.88
8717;BME280;4395;48.554;8.820;2023-10-13T02:41:28;95914.19;;;15.85;49.50
8717;BME280;4395;48.554;8.820;2023-10-13T02:43:31;95917.97;;;15.79;49.25
8717;BME280;4395;48.554;8.820;2023-10-13T02:45:35;95914.75;;;15.82;49.49
8717;BME280;4395;48.554;8.820;2023-10-13T02:47:39;95915.34;;;15.79;49.77
8717;BME280;4395;48.554;8.820;2023-10-13T02:49:45;95922.16;;;15.80;49.65
8717;BME280;4395;48.554;8.820;2023-10-13T02:51:49;95916.69;;;15.77;50.27
8717;BME280;4395;48.554;8.820;2023-10-13T02:53:54;95913.50;;;15.80;49.90
8717;BME280;4395;48.554;8.820;2023-10-13T02:56:04;95907.75;;;15.78;49.77
8717;BME280;4395;48.554;8.820;2023-10-13T02:58:08;95913.56;;;15.75;49.79
8717;BME280;4395;48.554;8.820;2023-10-13T03:00:11;95903.84;;;15.75;49.79
8717;BME280;4395;48.554;8.820;2023-10-13T03:02:18;95909.59;;;15.77;49.80
8717;BME280;4395;48.554;8.820;2023-10-13T03:04:26;95902.28;;;15.74;50.15
8717;BME280;4395;48.554;8.820;2023-10-13T03:06:33;95902.28;;;15.74;50.39
8717;BME280;4395;48.554;8.820;2023-10-13T03:08:35;95902.84;;;15.71;49.82
8717;BME280;4395;48.554;8.820;2023-10-13T03:10:38;95907.03;;;15.72;50.22
8717;BME280;4395;48.554;8.820;2023-10-13T03:12:48;95897.09;;;15.88;50.21
8717;BME280;4395;48.554;8.820;2023-10-13T03:14:50;95896.47;;;15.77;50.12
8717;BME280;4395;48.554;8.820;2023-10-13T03:16:58;95895.97;;;15.75;49.99
8717;BME280;4395;48.554;8.820;2023-10-13T03:19:05;95896.25;;;15.74;50.33
8717;BME280;4395;48.554;8.820;2023-10-13T03:21:10;95904.41;;;15.72;49.70
8717;BME280;4395;48.554;8.820;2023-10-13T03:23:15;95892.34;;;15.71;50.69
8717;BME280;4395;48.554;8.820;2023-10-13T03:25:17;95893.91;;;15.72;50.17
8717;BME280;4395;48.554;8.820;2023-10-13T03:27:26;95899.16;;;15.72;50.56
8717;BME280;4395;48.554;8.820;2023-10-13T03:29:44;95896.25;;;15.74;50.46
8717;BME280;4395;48.554;8.820;2023-10-13T03:31:48;95895.47;;;15.73;50.57
8717;BME280;4395;48.554;8.820;2023-10-13T03:34:07;95898.38;;;15.72;50.54
8717;BME280;4395;48.554;8.820;2023-10-13T03:36:15;95899.75;;;15.69;51.01
8717;BME280;4395;48.554;8.820;2023-10-13T03:38:38;95890.31;;;15.68;51.13
8717;BME280;4395;48.554;8.820;2023-10-13T03:40:41;95890.88;;;15.65;50.94
8717;BME280;4395;48.554;8.820;2023-10-13T03:42:43;95893.28;;;15.62;50.71
8717;BME280;4395;48.554;8.820;2023-10-13T03:44:59;95891.53;;;15.57;50.65
8717;BME280;4395;48.554;8.820;2023-10-13T03:47:03;95893.13;;;15.53;51.20
8717;BME280;4395;48.554;8.820;2023-10-13T03:49:19;95886.88;;;15.49;51.03
8717;BME280;4395;48.554;8.820;2023-10-13T03:51:25;95886.97;;;15.44;51.69
8717;BME280;4395;48.554;8.820;2023-10-13T03:53:34;95885.69;;;15.41;51.74
8717;BME280;4395;48.554;8.820;2023-10-13T03:55:37;95879.72;;;15.36;51.43
8717;BME280;4395;48.554;8.820;2023-10-13T03:57:40;95880.28;;;15.33;51.04
8717;BME280;4395;48.554;8.820;2023-10-13T03:59:43;95880.06;;;15.29;51.64
8717;BME280;4395;48.554;8.820;2023-10-13T04:01:49;95879.34;;;15.24;51.58
8717;BME280;4395;48.554;8.820;2023-10-13T04:04:01;95875.75;;;15.20;51.76
8717;BME280;4395;48.554;8.820;2023-10-13T04:06:05;95875.78;;;15.14;52.06
8717;BME280;4395;48.554;8.820;2023-10-13T04:08:11;95872.16;;;15.10;52.05
8717;BME280;4395;48.554;8.820;2023-10-13T04:10:32;95875.38;;;15.07;52.65
8717;BME280;4395;48.554;8.820;2023-10-13T04:13:00;95869.13;;;15.03;52.68
8717;BME280;4395;48.554;8.820;2023-10-13T04:15:21;95872.03;;;15.02;52.29
8717;BME280;4395;48.554;8.820;2023-10-13T04:17:38;95877.00;;;15.03;51.94
8717;BME280;4395;48.554;8.820;2023-10-13T04:19:45;95873.34;;;14.99;52.30
8717;BME280;4395;48.554;8.820;2023-10-13T04:22:02;95871.19;;;15.06;52.23
8717;BME280;4395;48.554;8.820;2023-10-13T04:24:17;95873.31;;;15.04;51.73
8717;BME280;4395;48.554;8.820;2023-10-13T04:26:34;95873.81;;;15.06;52.04
8717;BME280;4395;48.554;8.820;2023-10-13T04:28:39;95875.44;;;15.02;51.72
8717;BME280;4395;48.554;8.820;2023-10-13T04:30:54;95871.75;;;15.03;51.97
8717;BME280;4395;48.554;8.820;2023-10-13T04:33:00;95874.31;;;15.08;51.37
8717;BME280;4395;48.554;8.820;2023-10-13T04:35:19;95865.94;;;15.06;51.68
8717;BME280;4395;48.554;8.820;2023-10-13T04:37:21;95871.69;;;15.08;51.55
8717;BME280;4395;48.554;8.820;2023-10-13T04:39:35;95861.69;;;15.10;51.68
8717;BME280;4395;48.554;8.820;2023-10-13T04:41:40;95864.81;;;15.12;51.75
8717;BME280;4395;48.554;8.820;2023-10-13T04:43:47;95862.19;;;15.12;51.12
8717;BME280;4395;48.554;8.820;2023-10-13T04:45:59;95862.69;;;15.14;51.56
8717;BME280;4395;48.554;8.820;2023-10-13T04:48:16;95864.25;;;15.16;51.43
8717;BME280;4395;48.554;8.820;2023-10-13T04:50:30;95859.00;;;15.16;51.48
8717;BME280;4395;48.554;8.820;2023-10-13T04:52:42;95850.06;;;15.17;51.53
8717;BME280;4395;48.554;8.820;2023-10-13T04:55:05;95849.50;;;15.20;51.25
8717;BME280;4395;48.554;8.820;2023-10-13T04:57:28;95847.94;;;15.19;51.24
8717;BME280;4395;48.554;8.820;2023-10-13T04:59:35;95855.72;;;15.24;50.89
8717;BME280;4395;48.554;8.820;2023-10-13T05:01:38;95851.06;;;15.21;51.25
8717;BME280;4395;48.554;8.820;2023-10-13T05:04:01;95850.28;;;15.20;51.14
8717;BME280;4395;48.554;8.820;2023-10-13T05:06:24;95840.00;;;15.24;51.49
8717;BME280;4395;48.554;8.820;2023-10-13T05:08:45;95848.91;;;15.23;51.20
8717;BME280;4395;48.554;8.820;2023-10-13T05:11:21;95843.13;;;15.26;51.14
8717;BME280;4395;48.554;8.820;2023-10-13T05:13:41;95845.47;;;15.27;51.35
8717;BME280;4395;48.554;8.820;2023-10-13T05:16:01;95850.66;;;15.32;51.49
8717;BME280;4395;48.554;8.820;2023-10-13T05:18:22;95846.66;;;15.35;50.88
8717;BME280;4395;48.554;8.820;2023-10-13T05:20:42;95841.63;;;15.38;50.82
8717;BME280;4395;48.554;8.820;2023-10-13T05:23:03;95842.41;;;15.39;51.29
8717;BME280;4395;48.554;8.820;2023-10-13T05:25:23;95841.34;;;15.40;50.97
8717;BME280;4395;48.554;8.820;2023-10-13T05:27:45;95838.72;;;15.40;50.90
8717;BME280;4395;48.554;8.820;2023-10-13T05:30:09;95845.75;;;15.44;51.26
8717;BME280;4395;48.554;8.820;2023-10-13T05:32:29;95837.66;;;15.41;51.19
8717;BME280;4395;48.554;8.820;2023-10-13T05:34:50;95838.72;;;15.40;50.86
8717;BME280;4395;48.554;8.820;2023-10-13T05:37:10;95834.03;;;15.37;50.82
8717;BME280;4395;48.554;8.820;2023-10-13T05:39:30;95833.25;;;15.36;51.12
8717;BME280;4395;48.554;8.820;2023-10-13T05:41:51;95838.78;;;15.35;51.64
8717;BME280;4395;48.554;8.820;2023-10-13T05:44:12;95842.00;;;15.32;51.45
8717;BME280;4395;48.554;8.820;2023-10-13T05:46:33;95841.22;;;15.31;51.79
8717;BME280;4395;48.554;8.820;2023-10-13T05:49:03;95839.84;;;15.34;51.30
8717;BME280;4395;48.554;8.820;2023-10-13T05:51:21;95831.97;;;15.34;51.50
8717;BME280;4395;48.554;8.820;2023-10-13T05:53:45;95831.91;;;15.39;51.24
8717;BME280;4395;48.554;8.820;2023-10-13T05:56:06;95832.31;;;15.46;51.14
8717;BME280;4395;48.554;8.820;2023-10-13T05:58:26;95831.75;;;15.49;51.54
8717;BME280;4395;48.554;8.820;2023-10-13T06:00:48;95836.44;;;15.52;51.60
8717;BME280;4395;48.554;8.820;2023-10-13T06:03:08;95826.97;;;15.56;51.78
8717;BME280;4395;48.554;8.820;2023-10-13T06:05:29;95830.28;;;15.62;51.21
8717;BME280;4395;48.554;8.820;2023-10-13T06:07:50;95823.97;;;15.63;51.73
8717;BME280;4395;48.554;8.820;2023-10-13T06:10:10;95845.88;;;15.72;51.48
8717;BME280;4395;48.554;8.820;2023-10-13T06:12:31;95833.03;;;15.70;51.01
8717;BME280;4395;48.554;8.820;2023-10-13T06:14:51;95840.44;;;15.68;51.59
8717;BME280;4395;48.554;8.820;2023-10-13T06:17:13;95830.91;;;15.72;51.62
8717;BME280;4395;48.554;8.820;2023-10-13T06:19:34;95829.34;;;15.71;51.22
8717;BME280;4395;48.554;8.820;2023-10-13T06:21:54;95839.28;;;15.74;51.33
8717;BME280;4395;48.554;8.820;2023-10-13T06:24:14;95841.91;;;15.74;51.36
8717;BME280;4395;48.554;8.820;2023-10-13T06:26:34;95833.47;;;15.77;51.05
8717;BME280;4395;48.554;8.820;2023-10-13T06:28:55;95839.72;;;15.81;51.05
8717;BME280;4395;48.554;8.820;2023-10-13T06:30:59;95842.44;;;15.90;50.43
8717;BME280;4395;48.554;8.820;2023-10-13T06:33:04;95848.25;;;15.87;50.53
8717;BME280;4395;48.554;8.820;2023-10-13T06:35:07;95836.97;;;15.87;50.81
8717;BME280;4395;48.554;8.820;2023-10-13T06:37:17;95843.22;;;15.91;50.75
8717;BME280;4395;48.554;8.820;2023-10-13T06:39:27;95837.69;;;15.92;50.70
8717;BME280;4395;48.554;8.820;2023-10-13T06:41:37;95837.59;;;15.97;50.19
8717;BME280;4395;48.554;8.820;2023-10-13T06:43:42;95839.16;;;15.98;50.69
8717;BME280;4395;48.554;8.820;2023-10-13T06:45:46;95843.56;;;16.03;50.18
8717;BME280;4395;48.554;8.820;2023-10-13T06:47:58;95835.66;;;16.03;50.04
8717;BME280;4395;48.554;8.820;2023-10-13T06:50:03;95841.88;;;16.07;50.49
8717;BME280;4395;48.554;8.820;2023-10-13T06:52:07;95848.22;;;16.06;49.96
8717;BME280;4395;48.554;8.820;2023-10-13T06:54:10;95849.19;;;16.10;50.22
8717;BME280;4395;48.554;8.820;2023-10-13T06:56:21;95849.19;;;16.10;50.15
8717;BME280;4395;48.554;8.820;2023-10-13T06:58:23;95848.91;;;16.11;50.13
8717;BME280;4395;48.554;8.820;2023-10-13T07:00:26;95844.44;;;16.12;49.85
8717;BME280;4395;48.554;8.820;2023-10-13T07:02:31;95853.38;;;16.11;49.92
8717;BME280;4395;48.554;8.820;2023-10-13T07:04:35;95849.13;;;16.15;49.37
8717;BME280;4395;48.554;8.820;2023-10-13T07:06:43;95854.38;;;16.15;49.18
8717;BME280;4395;48.554;8.820;2023-10-13T07:08:49;95851.06;;;16.23;49.36
8717;BME280;4395;48.554;8.820;2023-10-13T07:10:55;95845.63;;;16.33;48.71
8717;BME280;4395;48.554;8.820;2023-10-13T07:13:04;95853.03;;;16.45;48.43
8717;BME280;4395;48.554;8.820;2023-10-13T07:15:10;95855.00;;;16.53;47.99
8717;BME280;4395;48.554;8.820;2023-10-13T07:17:20;95855.63;;;16.64;47.56
8717;BME280;4395;48.554;8.820;2023-10-13T07:19:27;95854.44;;;16.70;47.56
8717;BME280;4395;48.554;8.820;2023-10-13T07:21:30;95855.03;;;16.80;47.43
8717;BME280;4395;48.554;8.820;2023-10-13T07:23:35;95847.81;;;16.86;47.35
8717;BME280;4395;48.554;8.820;2023-10-13T07:25:39;95851.31;;;16.95;47.47
8717;BME280;4395;48.554;8.820;2023-10-13T07:27:42;95853.25;;;17.03;47.19
8717;BME280;4395;48.554;8.820;2023-10-13T07:29:45;95851.50;;;17.12;47.11
8717;BME280;4395;48.554;8.820;2023-10-13T07:31:51;95851.84;;;17.19;46.80
8717;BME280;4395;48.554;8.820;2023-10-13T07:33:54;95850.06;;;17.28;46.63
8717;BME280;4395;48.554;8.820;2023-10-13T07:36:07;95862.56;;;17.37;46.52
8717;BME280;4395;48.554;8.820;2023-10-13T07:38:18;95856.56;;;17.45;46.52
8717;BME280;4395;48.554;8.820;2023-10-13T07:40:24;95857.53;;;17.49;45.95
8717;BME280;4395;48.554;8.820;2023-10-13T07:42:41;95860.97;;;17.49;45.87
8717;BME280;4395;48.554;8.820;2023-10-13T07:44:45;95861.13;;;17.53;46.27
8717;BME280;4395;48.554;8.820;2023-10-13T07:46:48;95865.03;;;17.55;45.74
8717;BME280;4395;48.554;8.820;2023-10-13T07:49:00;95863.66;;;17.58;46.22
8717;BME280;4395;48.554;8.820;2023-10-13T07:51:12;95858.28;;;17.63;46.48
8717;BME280;4395;48.554;8.820;2023-10-13T07:53:17;95855.84;;;17.67;46.25
8717;BME280;4395;48.554;8.820;2023-10-13T07:55:26;95866.56;;;17.70;45.80
8717;BME280;4395;48.554;8.820;2023-10-13T07:57:29;95846.91;;;17.76;45.92
8717;BME280;4395;48.554;8.820;2023-10-13T07:59:32;95844.66;;;17.83;45.90
8717;BME280;4395;48.554;8.820;2023-10-13T08:01:38;95848.13;;;17.92;45.38
8717;BME280;4395;48.554;8.820;2023-10-13T08:03:45;95845.38;;;17.97;45.22
8717;BME280;4395;48.554;8.820;2023-10-13T08:05:52;95845.72;;;18.05;44.98
8717;BME280;4395;48.554;8.820;2023-10-13T08:08:00;95855.06;;;18.11;45.18
8717;BME280;4395;48.554;8.820;2023-10-13T08:10:06;95850.13;;;18.18;44.84
8717;BME280;4395;48.554;8.820;2023-10-13T08:12:13;95853.56;;;18.27;44.95
8717;BME280;4395;48.554;8.820;2023-10-13T08:14:23;95845.56;;;18.32;44.59
8717;BME280;4395;48.554;8.820;2023-10-13T08:16:40;95848.03;;;18.37;44.37
8717;BME280;4395;48.554;8.820;2023-10-13T08:18:54;95843.13;;;18.44;44.75
8717;BME280;4395;48.554;8.820;2023-10-13T08:20:57;95843.44;;;18.51;44.29
8717;BME280;4395;48.554;8.820;2023-10-13T08:23:05;95860.44;;;18.59;44.00
8717;BME280;4395;48.554;8.820;2023-10-13T08:25:15;95850.03;;;18.62;43.54
8717;BME280;4395;48.554;8.820;2023-10-13T08:27:28;95848.06;;;18.68;43.14
8717;BME280;4395;48.554;8.820;2023-10-13T08:29:37;95847.59;;;18.75;43.29
8717;BME280;4395;48.554;8.820;2023-10-13T08:31:57;95844.22;;;18.83;43.25
8717;BME280;4395;48.554;8.820;2023-10-13T08:34:16;95845.50;;;18.94;42.87
8717;BME280;4395;48.554;8.820;2023-10-13T08:36:25;95845.81;;;19.01;42.52
8717;BME280;4395;48.554;8.820;2023-10-13T08:38:31;95850.00;;;19.11;42.11
8717;BME280;4395;48.554;8.820;2023-10-13T08:40:53;95840.56;;;19.27;42.60
8717;BME280;4395;48.554;8.820;2023-10-13T08:43:33;95837.16;;;19.43;42.71
8717;BME280;4395;48.554;8.820;2023-10-13T08:45:46;95839.22;;;19.55;42.35
8717;BME280;4395;48.554;8.820;2023-10-13T08:48:00;95838.25;;;19.68;42.09
8717;BME280;4395;48.554;8.820;2023-10-13T08:50:14;95839.50;;;19.80;40.97
8717;BME280;4395;48.554;8.820;2023-10-13T08:52:38;95838.22;;;19.94;41.16
8717;BME280;4395;48.554;8.820;2023-10-13T08:54:51;95835.72;;;20.06;40.52
8717;BME280;4395;48.554;8.820;2023-10-13T08:57:15;95835.84;;;20.19;40.60
8717;BME280;4395;48.554;8.820;2023-10-13T08:59:36;95830.34;;;20.32;40.40
8717;BME280;4395;48.554;8.820;2023-10-13T09:01:40;95834.38;;;20.47;39.96
8717;BME280;4395;48.554;8.820;2023-10-13T09:03:50;95835.84;;;20.65;39.65
8717;BME280;4395;48.554;8.820;2023-10-13T09:05:55;95835.94;;;20.77;38.91
8717;BME280;4395;48.554;8.820;2023-10-13T09:08:03;95834.94;;;20.91;38.48
8717;BME280;4395;48.554;8.820;2023-10-13T09:10:21;95833.03;;;21.00;38.06
8717;BME280;4395;48.554;8.820;2023-10-13T09:12:34;95841.97;;;21.16;38.34
8717;BME280;4395;48.554;8.820;2023-10-13T09:15:01;95828.44;;;21.38;38.00
8717;BME280;4395;48.554;8.820;2023-10-13T09:17:06;95829.72;;;21.53;36.98
8717;BME280;4395;48.554;8.820;2023-10-13T09:19:14;95826.63;;;21.72;37.22
8717;BME280;4395;48.554;8.820;2023-10-13T09:21:18;95825.22;;;21.86;37.29
8717;BME280;4395;48.554;8.820;2023-10-13T09:23:46;95829.47;;;22.00;36.26
8717;BME280;4395;48.554;8.820;2023-10-13T09:25:50;95830.97;;;22.09;36.15
8717;BME280;4395;48.554;8.820;2023-10-13T09:28:00;95820.94;;;22.27;35.81
8717;BME280;4395;48.554;8.820;2023-10-13T09:30:05;95816.09;;;22.41;35.87
8717;BME280;4395;48.554;8.820;2023-10-13T09:32:11;95811.88;;;22.52;35.31
8717;BME280;4395;48.554;8.820;2023-10-13T09:34:21;95801.72;;;22.67;35.66
8717;BME280;4395;48.554;8.820;2023-10-13T09:36:30;95807.84;;;22.79;34.94
8717;BME280;4395;48.554;8.820;2023-10-13T09:38:35;95803.38;;;22.95;35.19
8717;BME280;4395;48.554;8.820;2023-10-13T09:40:42;95802.25;;;22.96;34.97
8717;BME280;4395;48.554;8.820;2023-10-13T09:42:48;95796.16;;;23.08;34.58
8717;BME280;4395;48.554;8.820;2023-10-13T09:44:51;95796.38;;;23.15;34.85
8717;BME280;4395;48.554;8.820;2023-10-13T09:46:59;95796.69;;;23.26;34.17
8717;BME280;4395;48.554;8.820;2023-10-13T09:49:12;95788.78;;;23.42;34.77
8717;BME280;4395;48.554;8.820;2023-10-13T09:51:17;95791.94;;;23.59;33.91
8717;BME280;4395;48.554;8.820;2023-10-13T09:53:23;95791.00;;;23.67;33.49
8717;BME280;4395;48.554;8.820;2023-10-13T09:55:30;95786.72;;;23.91;32.62
8717;BME280;4395;48.554;8.820;2023-10-13T09:57:37;95794.03;;;24.10;32.37
8717;BME280;4395;48.554;8.820;2023-10-13T09:59:50;95787.41;;;24.19;31.84
8717;BME280;4395;48.554;8.820;2023-10-13T10:01:56;95783.75;;;24.39;31.36
8717;BME280;4395;48.554;8.820;2023-10-13T10:04:07;95789.94;;;24.44;31.99
8717;BME280;4395;48.554;8.820;2023-10-13T10:06:21;95789.84;;;24.40;32.05
8717;BME280;4395;48.554;8.820;2023-10-13T10:08:29;95779.63;;;24.58;32.33
8717;BME280;4395;48.554;8.820;2023-10-13T10:10:47;95782.94;;;24.86;31.22
8717;BME280;4395;48.554;8.820;2023-10-13T10:13:01;95779.91;;;25.03;31.27
8717;BME280;4395;48.554;8.820;2023-10-13T10:15:24;95777.28;;;25.23;30.44
8717;BME280;4395;48.554;8.820;2023-10-13T10:17:41;95779.03;;;25.34;29.74
8717;BME280;4395;48.554;8.820;2023-10-13T10:19:48;95786.94;;;25.50;29.81
8717;BME280;4395;48.554;8.820;2023-10-13T10:22:00;95786.81;;;25.43;29.06
8717;BME280;4395;48.554;8.820;2023-10-13T10:24:14;95777.69;;;25.44;29.48
8717;BME280;4395;48.554;8.820;2023-10-13T10:26:25;95782.34;;;25.47;29.55
8717;BME280;4395;48.554;8.820;2023-10-13T10:28:35;95777.41;;;25.49;29.93
8717;BME280;4395;48.554;8.820;2023-10-13T10:30:38;95775.03;;;25.44;29.34
8717;BME280;4395;48.554;8.820;2023-10-13T10:32:44;95771.16;;;25.41;30.31
8717;BME280;4395;48.554;8.820;2023-10-13T10:35:05;95774.88;;;25.56;29.30
8717;BME280;4395;48.554;8.820;2023-10-13T10:37:17;95777.44;;;25.68;29.96
8717;BME280;4395;48.554;8.820;2023-10-13T10:39:20;95777.94;;;25.97;29.17
8717;BME280;4395;48.554;8.820;2023-10-13T10:41:35;95768.22;;;26.08;28.79
8717;BME280;4395;48.554;8.820;2023-10-13T10:43:46;95764.03;;;26.07;28.53
8717;BME280;4395;48.554;8.820;2023-10-13T10:45:49;95758.84;;;25.95;28.25
8717;BME280;4395;48.554;8.820;2023-10-13T10:48:06;95757.06;;;26.02;28.46
8717;BME280;4395;48.554;8.820;2023-10-13T10:50:25;95755.41;;;26.17;28.88
8717;BME280;4395;48.554;8.820;2023-10-13T10:52:37;95746.38;;;26.25;28.46
8717;BME280;4395;48.554;8.820;2023-10-13T10:54:41;95744.13;;;26.27;28.10
8717;BME280;4395;48.554;8.820;2023-10-13T10:56:46;95744.13;;;26.27;27.64
8717;BME280;4395;48.554;8.820;2023-10-13T10:58:55;95736.56;;;26.29;27.47
8717;BME280;4395;48.554;8.820;2023-10-13T11:01:05;95738.91;;;26.34;27.50
8717;BME280;4395;48.554;8.820;2023-10-13T11:03:13;95739.09;;;26.45;28.40
8717;BME280;4395;48.554;8.820;2023-10-13T11:05:16;95731.06;;;26.68;27.28
8717;BME280;4395;48.554;8.820;2023-10-13T11:07:22;95729.66;;;26.77;27.21
8717;BME280;4395;48.554;8.820;2023-10-13T11:09:26;95719.41;;;26.83;26.42
8717;BME280;4395;48.554;8.820;2023-10-13T11:11:38;95715.41;;;26.96;27.02
8717;BME280;4395;48.554;8.820;2023-10-13T11:13:45;95711.72;;;27.08;26.76
8717;BME280;4395;48.554;8.820;2023-10-13T11:15:53;95715.06;;;27.31;26.35
8717;BME280;4395;48.554;8.820;2023-10-13T11:17:58;95698.41;;;27.45;25.85
8717;BME280;4395;48.554;8.820;2023-10-13T11:20:09;95701.66;;;27.61;25.08
8717;BME280;4395;48.554;8.820;2023-10-13T11:22:19;95702.47;;;27.65;24.34
8717;BME280;4395;48.554;8.820;2023-10-13T11:24:43;95711.06;;;27.85;24.17
8717;BME280;4395;48.554;8.820;2023-10-13T11:26:46;95702.00;;;27.96;24.46
8717;BME280;4395;48.554;8.820;2023-10-13T11:28:51;95700.03;;;27.93;24.48
8717;BME280;4395;48.554;8.820;2023-10-13T11:30:58;95692.25;;;28.18;24.11
8717;BME280;4395;48.554;8.820;2023-10-13T11:33:02;95684.34;;;28.40;24.28
8717;BME280;4395;48.554;8.820;2023-10-13T11:35:09;95682.59;;;28.61;23.37
8717;BME280;4395;48.554;8.820;2023-10-13T11:37:22;95675.66;;;28.57;23.43
8717;BME280;4395;48.554;8.820;2023-10-13T11:39:39;95679.53;;;28.59;23.70
8717;BME280;4395;48.554;8.820;2023-10-13T11:41:44;95678.84;;;28.73;23.82
8717;BME280;4395;48.554;8.820;2023-10-13T11:43:55;95678.19;;;28.94;23.25
8717;BME280;4395;48.554;8.820;2023-10-13T11:46:26;95674.38;;;29.02;23.21